Time;durP1;ratioP1;P1;durP2;ratioP2;P2;SDS_P1;SDS_P2;PMS_P1;PMS_P2;Temp;Humidity;BMP_temperature;BMP_pressure;BME280_temperature;BME280_humidity;BME280_pressure;Samples;Min_cycle;Max_cycle;Signal;HPM_P1;HPM_P2
2023/02/08 07:17:00;;;;;;;;;9.50;9.00;;;;;17.34;41.57;103191.97;5094161;27;45548;-83
2023/02/08 07:19:26;;;;;;;;;9.00;9.00;;;;;17.73;42.10;103197.44;5083392;27;45515;-78
2023/02/08 07:21:51;;;;;;;;;9.75;8.50;;;;;18.24;42.46;103192.44;5087598;27;45819;-79
2023/02/08 07:24:16;;;;;;;;;8.00;7.00;;;;;18.84;42.13;103195.81;5093850;27;45479;-74
2023/02/08 07:26:41;;;;;;;;;8.50;8.50;;;;;19.41;42.32;103194.72;5084808;27;45827;-75
2023/02/08 07:29:07;;;;;;;;;8.00;8.00;;;;;19.98;41.81;103193.50;5082181;27;47622;-77
2023/02/08 07:31:32;;;;;;;;;11.50;11.00;;;;;20.48;42.02;103193.41;5079938;27;45421;-74
2023/02/08 07:33:58;;;;;;;;;10.00;7.00;;;;;20.93;41.57;103190.84;5090113;27;45996;-76
2023/02/08 07:36:23;;;;;;;;;7.50;6.75;;;;;21.35;41.27;103195.56;5088752;27;45491;-73
2023/02/08 07:38:49;;;;;;;;;8.50;8.50;;;;;21.69;40.70;103193.47;5087177;27;45434;-77
2023/02/08 07:41:14;;;;;;;;;8.75;8.75;;;;;22.02;40.47;103186.03;5089511;27;45427;-76
2023/02/08 07:43:40;;;;;;;;;10.50;9.00;;;;;22.31;40.16;103190.50;5082100;27;45461;-79
2023/02/08 07:46:06;;;;;;;;;8.25;8.25;;;;;22.59;40.03;103194.97;5085793;27;45748;-76
2023/02/08 07:48:31;;;;;;;;;7.75;7.75;;;;;22.83;40.37;103188.00;5088699;27;45635;-76
2023/02/08 07:50:57;;;;;;;;;8.00;8.00;;;;;23.03;39.64;103184.81;5087246;27;46976;-77
2023/02/08 07:53:22;;;;;;;;;7.00;7.00;;;;;23.23;39.67;103190.69;5086281;27;45807;-76
2023/02/08 07:55:47;;;;;;;;;8.00;5.67;;;;;23.33;40.06;103176.53;5079496;27;45531;-78
2023/02/08 07:58:13;;;;;;;;;8.67;7.67;;;;;23.51;39.69;103183.31;5078283;27;46041;-78
2023/02/08 08:00:38;;;;;;;;;8.33;7.33;;;;;23.62;39.51;103185.28;5089438;27;45531;-76
2023/02/08 08:03:03;;;;;;;;;8.00;8.00;;;;;23.69;38.99;103169.44;5085953;27;45854;-76
2023/02/08 08:05:29;;;;;;;;;8.67;8.67;;;;;23.82;38.62;103175.69;5089791;27;46987;-75
2023/02/08 08:07:54;;;;;;;;;7.67;7.67;;;;;23.88;38.83;103171.69;5075307;27;45761;-76
2023/02/08 08:10:19;;;;;;;;;8.33;7.00;;;;;23.95;39.48;103175.66;5088199;27;45402;-76
2023/02/08 08:12:45;;;;;;;;;7.00;7.00;;;;;24.03;38.48;103179.66;5088762;27;45555;-76
2023/02/08 08:15:10;;;;;;;;;7.00;7.00;;;;;24.11;38.50;103188.13;5090252;27;45844;-76
2023/02/08 08:17:35;;;;;;;;;8.67;6.67;;;;;24.13;38.58;103175.31;5082981;27;45414;-79
2023/02/08 08:20:01;;;;;;;;;9.33;7.67;;;;;24.18;38.15;103170.44;5083501;27;45505;-76
2023/02/08 08:22:26;;;;;;;;;6.33;6.33;;;;;24.26;38.36;103171.69;5088403;27;45644;-75
2023/02/08 08:24:51;;;;;;;;;8.00;7.00;;;;;24.32;38.22;103169.38;5090053;27;45403;-77
2023/02/08 08:27:16;;;;;;;;;7.33;7.33;;;;;24.42;38.16;103168.69;5077345;27;48277;-76
2023/02/08 08:29:42;;;;;;;;;7.00;7.00;;;;;24.45;38.12;103171.19;5073970;28;45463;-75
2023/02/08 08:32:07;;;;;;;;;10.00;7.00;;;;;24.49;38.18;103164.53;5075769;27;45879;-75
2023/02/08 08:34:33;;;;;;;;;8.67;7.00;;;;;24.54;37.82;103175.91;5075248;28;46518;-80
2023/02/08 08:37:00;;;;;;;;;7.00;7.00;;;;;24.57;37.96;103170.22;5076570;28;45738;-82
2023/02/08 08:39:26;;;;;;;;;6.67;6.33;;;;;24.56;37.71;103163.06;5063682;27;45904;-84
2023/02/08 08:41:53;;;;;;;;;7.00;7.00;;;;;24.58;37.43;103161.13;5064202;27;45605;-77
2023/02/08 08:44:18;;;;;;;;;8.00;8.00;;;;;24.58;37.48;103169.28;5067424;28;46828;-78
2023/02/08 08:46:44;;;;;;;;;9.00;8.00;;;;;24.63;37.55;103163.47;5064261;27;45470;-78
2023/02/08 08:49:09;;;;;;;;;7.33;6.00;;;;;24.68;37.71;103158.56;5083802;27;45442;-76
2023/02/08 08:51:34;;;;;;;;;10.33;8.00;;;;;24.74;37.55;103162.66;5066826;27;45582;-75
2023/02/08 08:54:04;;;;;;;;;6.33;6.33;;;;;24.80;37.65;103164.03;5062888;27;46943;-74
2023/02/08 08:56:30;;;;;;;;;7.33;7.33;;;;;24.86;36.99;103158.16;5077929;27;45450;-74
2023/02/08 08:58:56;;;;;;;;;8.33;7.00;;;;;24.91;36.92;103153.22;5070610;28;45885;-73
2023/02/08 09:01:22;;;;;;;;;10.00;8.33;;;;;24.93;37.07;103144.97;5076047;28;45536;-74
2023/02/08 09:03:47;;;;;;;;;11.00;9.00;;;;;25.02;36.99;103152.41;5066710;27;46173;-75
2023/02/08 09:06:12;;;;;;;;;9.00;8.67;;;;;25.06;36.73;103150.28;5064350;28;45447;-75
2023/02/08 09:08:38;;;;;;;;;7.67;6.67;;;;;25.08;36.86;103145.59;5067142;28;46056;-73
2023/02/08 09:11:08;;;;;;;;;7.67;6.67;;;;;25.08;36.87;103142.88;5060053;28;45581;-88
2023/02/08 09:13:34;;;;;;;;;7.00;7.00;;;;;25.13;36.76;103144.25;5084196;27;47483;-84
2023/02/08 09:16:04;;;;;;;;;7.00;7.00;;;;;25.16;36.90;103139.53;5066871;27;45566;-84
2023/02/08 09:18:30;;;;;;;;;6.00;4.00;;;;;25.15;36.58;103127.84;5065256;27;45958;-81
2023/02/08 09:20:55;;;;;;;;;6.67;6.67;;;;;25.20;36.56;103131.03;5074053;27;45553;-79
2023/02/08 09:23:20;;;;;;;;;6.00;6.00;;;;;25.22;36.68;103130.94;5067849;27;46155;-75
2023/02/08 09:25:45;;;;;;;;;8.00;8.00;;;;;25.27;36.57;103131.44;5068454;28;45501;-75
2023/02/08 09:28:11;;;;;;;;;8.67;8.67;;;;;25.32;36.42;103125.59;5073228;27;45375;-75
2023/02/08 09:30:36;;;;;;;;;8.00;8.00;;;;;25.37;36.69;103123.38;5092545;27;45462;-76
2023/02/08 09:33:01;;;;;;;;;8.33;8.33;;;;;25.41;36.58;103118.59;5065668;27;45519;-75
2023/02/08 09:35:27;;;;;;;;;6.00;6.00;;;;;25.44;36.49;103124.63;5066526;27;46327;-77
2023/02/08 09:37:56;;;;;;;;;8.00;7.00;;;;;25.48;36.32;103126.13;5072006;27;45416;-74
2023/02/08 09:40:25;;;;;;;;;7.67;7.67;;;;;25.51;36.12;103119.56;5057831;27;45645;-81
2023/02/08 09:43:28;;;;;;;;;10.67;9.33;;;;;25.52;36.11;103127.59;5068651;28;45570;-76
2023/02/08 09:46:06;;;;;;;;;7.67;6.00;;;;;25.55;36.25;103131.97;4996338;28;45495;-75
2023/02/08 09:48:37;;;;;;;;;9.00;8.33;;;;;25.57;36.37;103127.25;4992977;28;45490;-76
2023/02/08 09:51:25;;;;;;;;;7.00;7.00;;;;;25.62;36.22;103132.28;5001572;28;45880;-76
2023/02/08 09:53:58;;;;;;;;;6.67;6.67;;;;;25.67;36.43;103137.38;4999276;28;46104;-74
2023/02/08 09:56:35;;;;;;;;;8.67;6.67;;;;;25.71;36.27;103131.53;5001961;28;45500;-74
2023/02/08 09:59:01;;;;;;;;;7.33;7.00;;;;;25.73;35.86;103132.31;5002206;28;45376;-81
2023/02/08 10:01:29;;;;;;;;;11.33;8.33;;;;;25.78;36.12;103130.06;5002919;28;45623;-79
2023/02/08 10:04:00;;;;;;;;;12.33;9.33;;;;;25.86;35.91;103123.09;5007961;28;45603;-76
2023/02/08 10:06:26;;;;;;;;;8.00;8.00;;;;;25.90;36.33;103124.59;5007787;28;45696;-76
2023/02/08 10:08:52;;;;;;;;;7.00;7.00;;;;;25.95;35.73;103133.22;5002939;28;45879;-79
2023/02/08 10:11:59;;;;;;;;;12.00;9.00;;;;;25.99;36.20;103122.97;5000726;28;45738;-81
2023/02/08 10:15:12;;;;;;;;;7.00;7.00;;;;;26.02;35.71;103122.72;4931847;28;45496;-77
2023/02/08 10:17:49;;;;;;;;;7.67;7.67;;;;;26.09;35.95;103123.94;4878828;29;45605;-78
2023/02/08 10:20:48;;;;;;;;;8.00;8.00;;;;;26.13;36.09;103144.47;4876307;29;45674;-75
2023/02/08 10:23:41;;;;;;;;;6.33;6.33;;;;;26.15;35.93;103136.13;4909410;28;45764;-74
2023/02/08 10:26:12;;;;;;;;;9.00;7.67;;;;;26.18;36.06;103130.44;4930831;28;45534;-74
2023/02/08 10:29:03;;;;;;;;;9.00;8.33;;;;;26.21;35.85;103134.78;4931346;28;45452;-75
2023/02/08 10:31:54;;;;;;;;;10.00;8.00;;;;;26.26;35.61;103136.16;4933394;28;45801;-74
2023/02/08 10:34:34;;;;;;;;;9.67;8.67;;;;;26.31;35.83;103133.03;4934265;28;45525;-73
2023/02/08 10:37:11;;;;;;;;;12.33;8.00;;;;;26.33;35.65;103131.06;4932019;28;46678;-80
2023/02/08 10:39:38;;;;;;;;;8.00;7.00;;;;;26.35;35.36;103133.66;4934426;28;45477;-76
2023/02/08 10:42:15;;;;;;;;;7.33;7.00;;;;;26.38;36.03;103131.53;4934301;28;45837;-82
2023/02/08 10:44:49;;;;;;;;;8.00;8.00;;;;;26.41;36.15;103133.13;4931777;28;45493;-81
2023/02/08 10:47:35;;;;;;;;;7.00;6.00;;;;;26.40;35.80;103137.69;4943584;28;46199;-82
2023/02/08 10:50:37;;;;;;;;;10.00;7.00;;;;;26.40;35.71;103134.13;4966893;28;45681;-76
2023/02/08 10:53:03;;;;;;;;;5.00;5.00;;;;;26.42;35.54;103126.69;5057151;28;45548;-76
2023/02/08 10:55:31;;;;;;;;;5.33;5.00;;;;;26.45;35.77;103123.72;5103532;27;45576;-77
2023/02/08 10:58:03;;;;;;;;;8.33;8.33;;;;;26.47;35.07;103113.53;5057865;27;45521;-77
2023/02/08 11:00:32;;;;;;;;;5.00;5.00;;;;;26.51;35.08;103116.84;5068436;27;45530;-76
2023/02/08 11:03:02;;;;;;;;;7.67;6.00;;;;;26.53;35.37;103123.91;5064708;28;45442;-75
2023/02/08 11:05:35;;;;;;;;;10.67;8.67;;;;;26.56;35.03;103125.50;5073428;28;45545;-77
2023/02/08 11:08:10;;;;;;;;;7.67;7.00;;;;;26.57;35.25;103117.19;5066647;27;46208;-85
2023/02/08 11:10:38;;;;;;;;;8.67;8.67;;;;;26.58;35.44;103112.63;5071927;28;45508;-74
2023/02/08 11:13:14;;;;;;;;;11.33;9.00;;;;;26.63;35.42;103104.03;5071548;27;45624;-75
2023/02/08 11:15:48;;;;;;;;;10.33;10.33;;;;;26.68;35.39;103109.94;5069359;28;45430;-74
2023/02/08 11:18:24;;;;;;;;;8.00;8.00;;;;;26.74;35.40;103095.81;5066733;27;45914;-75
2023/02/08 11:20:55;;;;;;;;;8.00;7.00;;;;;26.76;34.84;103093.81;5069243;28;45426;-75
2023/02/08 11:23:22;;;;;;;;;8.33;8.33;;;;;26.85;35.18;103094.84;5056617;28;45375;-75
2023/02/08 11:25:48;;;;;;;;;10.00;10.00;;;;;26.91;34.88;103091.63;5101150;27;45633;-75
2023/02/08 11:28:27;;;;;;;;;8.67;8.67;;;;;26.96;35.07;103094.81;5069166;27;46283;-75
2023/02/08 11:31:02;;;;;;;;;6.67;6.67;;;;;27.06;35.12;103094.00;5071892;28;45380;-76
2023/02/08 11:33:29;;;;;;;;;7.33;7.33;;;;;27.14;35.00;103102.34;5074957;27;45541;-74
2023/02/08 11:36:06;;;;;;;;;9.33;9.00;;;;;27.20;34.40;103101.84;5086501;27;45563;-81
2023/02/08 11:38:34;;;;;;;;;7.33;7.00;;;;;27.26;34.96;103094.94;5061522;27;47405;-80
2023/02/08 11:41:04;;;;;;;;;7.00;6.67;;;;;27.21;34.70;103081.75;5058732;27;45498;-79
2023/02/08 11:43:33;;;;;;;;;7.00;7.00;;;;;27.29;34.91;103089.22;5060951;27;45545;-80
2023/02/08 11:46:01;;;;;;;;;8.33;8.00;;;;;27.28;34.64;103090.22;5055257;27;46192;-80
2023/02/08 11:48:44;;;;;;;;;8.00;8.00;;;;;27.18;34.48;103079.28;5068143;27;45466;-80
2023/02/08 11:51:21;;;;;;;;;9.33;9.00;;;;;27.18;33.99;103084.72;5068398;28;45435;-78
2023/02/08 11:53:47;;;;;;;;;10.00;8.00;;;;;27.12;34.47;103073.50;5056792;28;45545;-79
2023/02/08 11:56:17;;;;;;;;;12.00;10.00;;;;;27.07;34.34;103076.66;5070042;28;45605;-78
2023/02/08 11:58:55;;;;;;;;;7.00;7.00;;;;;27.03;33.75;103073.34;5061694;27;46194;-78
2023/02/08 12:01:24;;;;;;;;;8.00;7.00;;;;;27.03;33.73;103067.91;5064092;27;45499;-79
2023/02/08 12:03:49;;;;;;;;;6.33;6.33;;;;;27.03;34.30;103076.06;5067544;28;46091;-80
2023/02/08 12:06:33;;;;;;;;;6.33;6.33;;;;;27.02;34.22;103066.16;5071364;28;45548;-77
2023/02/08 12:09:26;;;;;;;;;6.67;6.67;;;;;26.98;33.71;103059.28;5064818;27;45581;-79
2023/02/08 12:12:05;;;;;;;;;5.67;2.00;;;;;26.91;34.19;103063.50;5072496;27;45332;-79
2023/02/08 12:15:02;;;;;;;;;12.00;11.00;;;;;26.89;33.24;103065.50;5068984;27;45557;-78
2023/02/08 12:18:03;;;;;;;;;12.67;10.00;;;;;26.82;33.43;103057.84;5049364;27;46241;-79
2023/02/08 12:20:35;;;;;;;;;12.00;10.67;;;;;26.82;33.53;103054.28;5072620;27;46726;-79
2023/02/08 12:23:00;;;;;;;;;8.00;7.67;;;;;26.85;33.28;103048.53;5076503;27;45393;-85
2023/02/08 12:25:35;;;;;;;;;8.00;8.00;;;;;26.90;33.88;103050.88;5070848;27;45589;-91
2023/02/08 12:28:25;;;;;;;;;9.00;9.00;;;;;26.95;33.68;103041.34;5065887;28;45556;-90
2023/02/08 12:31:15;;;;;;;;;9.00;9.00;;;;;26.97;33.68;103041.16;5076312;27;45753;-83
2023/02/08 12:34:00;;;;;;;;;6.00;6.00;;;;;26.96;33.83;103032.16;5066032;27;45643;-74
2023/02/08 12:36:38;;;;;;;;;9.00;7.67;;;;;26.99;33.08;103032.88;5074885;27;45581;-75
2023/02/08 12:42:37;;;;;;;;;9.67;8.67;;;;;27.04;33.66;103030.59;5080256;27;45911;-77
2023/02/08 12:45:20;;;;;;;;;9.67;8.00;;;;;27.05;33.88;103016.84;5069278;27;45533;-76
2023/02/08 12:48:36;;;;;;;;;8.67;7.00;;;;;27.10;32.91;103013.72;5094397;27;45403;-77
2023/02/08 12:51:33;;;;;;;;;6.33;6.33;;;;;27.16;33.57;103018.59;5009212;28;45445;-87
2023/02/08 12:54:08;;;;;;;;;8.67;8.67;;;;;27.21;33.75;103010.00;5013369;28;46204;-83
2023/02/08 12:56:40;;;;;;;;;7.00;7.00;;;;;27.22;33.10;103009.00;5008865;28;45481;-84
2023/02/08 12:59:11;;;;;;;;;10.00;10.00;;;;;27.21;32.96;103001.81;5019347;28;45495;-77
2023/02/08 13:01:44;;;;;;;;;8.67;7.33;;;;;27.25;33.56;102996.97;5017901;28;45569;-77
2023/02/08 13:04:18;;;;;;;;;10.00;10.00;;;;;27.26;33.11;102987.78;5028027;28;47268;-78
2023/02/08 13:06:48;;;;;;;;;10.67;8.00;;;;;27.27;33.49;102990.38;5013189;28;45875;-77
2023/02/08 13:09:19;;;;;;;;;8.00;5.67;;;;;27.28;33.70;102980.31;4995660;28;46097;-77
2023/02/08 13:12:03;;;;;;;;;9.33;9.33;;;;;27.30;33.68;102972.88;5000469;28;45450;-75
2023/02/08 13:14:59;;;;;;;;;7.33;7.00;;;;;27.30;33.58;102967.41;5008419;28;46662;-79
2023/02/08 13:17:29;;;;;;;;;8.00;5.00;;;;;27.29;33.69;102946.59;5001114;28;45801;-79
2023/02/08 13:20:18;;;;;;;;;6.00;6.00;;;;;27.36;33.28;102950.47;5020627;28;45648;-81
2023/02/08 13:22:44;;;;;;;;;7.33;5.67;;;;;27.39;33.57;102941.16;5012362;28;45542;-76
2023/02/08 13:25:20;;;;;;;;;9.33;8.00;;;;;27.46;33.63;102951.34;5053819;27;46312;-75
2023/02/08 13:27:45;;;;;;;;;7.00;7.00;;;;;27.52;32.75;102946.34;5060971;27;47609;-74
2023/02/08 13:30:21;;;;;;;;;8.67;7.00;;;;;27.57;33.55;102939.47;5061155;27;45520;-75
2023/02/08 13:32:49;;;;;;;;;6.67;6.67;;;;;27.63;33.46;102938.06;5058113;27;46045;-76
2023/02/08 13:35:30;;;;;;;;;7.00;7.00;;;;;27.70;33.20;102932.88;5055939;28;45834;-76
2023/02/08 13:37:58;;;;;;;;;8.33;6.00;;;;;27.74;32.98;102932.44;5064343;27;45591;-75
2023/02/08 13:40:27;;;;;;;;;6.67;6.67;;;;;27.79;33.28;102937.47;5060882;28;45500;-80
2023/02/08 13:42:59;;;;;;;;;9.67;7.67;;;;;27.83;33.39;102921.69;5064100;28;45545;-82
2023/02/08 13:45:36;;;;;;;;;7.00;6.33;;;;;27.86;33.42;102926.81;5066730;28;45547;-79
2023/02/08 13:48:13;;;;;;;;;7.33;7.33;;;;;27.84;33.33;102918.78;5059852;28;45510;-79
2023/02/08 13:50:47;;;;;;;;;5.33;5.33;;;;;27.88;33.17;102922.09;5058665;27;45475;-78
2023/02/08 13:53:14;;;;;;;;;9.67;7.00;;;;;27.85;33.29;102916.91;5064455;27;47304;-79
2023/02/08 13:55:54;;;;;;;;;7.67;6.33;;;;;27.85;32.69;102917.78;5063151;27;47038;-77
2023/02/08 13:58:37;;;;;;;;;8.00;8.00;;;;;27.80;32.50;102909.19;5071417;27;45755;-76
2023/02/08 14:01:14;;;;;;;;;5.00;5.00;;;;;27.78;32.89;102919.38;5065912;28;45508;-78
2023/02/08 14:03:40;;;;;;;;;5.67;5.67;;;;;27.76;32.72;102915.94;5054321;28;45351;-84
2023/02/08 14:06:55;;;;;;;;;6.33;4.00;;;;;27.78;33.34;102921.25;5054642;27;46962;-83
2023/02/08 14:09:37;;;;;;;;;6.33;6.00;;;;;27.75;32.79;102917.78;5057029;28;45749;-82
2023/02/08 14:12:12;;;;;;;;;8.33;6.00;;;;;27.72;33.28;102918.06;5064536;28;45349;-85
2023/02/08 14:14:38;;;;;;;;;5.00;5.00;;;;;27.67;33.39;102914.06;5074778;28;45358;-80
2023/02/08 14:17:03;;;;;;;;;9.00;6.33;;;;;27.65;32.63;102922.41;5071693;28;45514;-79
2023/02/08 14:19:31;;;;;;;;;6.33;6.33;;;;;27.58;32.96;102904.84;5073406;28;45489;-78
2023/02/08 14:22:12;;;;;;;;;7.67;6.00;;;;;27.53;33.16;102905.28;5067956;28;45533;-78
2023/02/08 14:24:42;;;;;;;;;4.33;4.33;;;;;27.42;32.68;102892.66;5054503;28;45653;-78
2023/02/08 14:27:32;;;;;;;;;5.67;5.67;;;;;27.38;32.74;102891.22;5068662;28;46317;-81
2023/02/08 14:30:00;;;;;;;;;6.67;6.33;;;;;27.31;33.29;102890.06;5067323;28;45454;-74
2023/02/08 14:32:29;;;;;;;;;5.33;5.33;;;;;27.25;33.37;102894.22;5073990;28;45429;-73
2023/02/08 14:35:05;;;;;;;;;6.67;6.67;;;;;27.18;32.70;102898.53;5074944;27;45443;-72
2023/02/08 14:37:35;;;;;;;;;6.00;6.00;;;;;27.14;33.54;102883.47;5072216;28;46451;-73
2023/02/08 14:40:15;;;;;;;;;4.67;3.33;;;;;27.13;32.81;102884.47;5073873;28;45439;-72
2023/02/08 14:43:02;;;;;;;;;5.00;5.00;;;;;27.10;32.96;102886.44;5067440;28;45517;-78
2023/02/08 14:45:33;;;;;;;;;6.00;6.00;;;;;27.08;32.99;102883.03;5073318;28;45357;-79
2023/02/08 14:48:43;;;;;;;;;6.00;6.00;;;;;27.07;33.49;102891.34;5073092;28;47389;-76
2023/02/08 14:51:08;;;;;;;;;5.33;5.00;;;;;27.03;33.03;102884.44;5071944;27;45458;-77
2023/02/08 14:53:57;;;;;;;;;4.67;4.67;;;;;26.99;33.41;102883.00;5063268;28;45340;-76
2023/02/08 14:56:53;;;;;;;;;6.00;6.00;;;;;26.93;33.55;102877.09;5064224;28;45548;-74
2023/02/08 14:59:24;;;;;;;;;5.33;5.33;;;;;26.90;33.40;102871.06;5062286;27;46300;-73
2023/02/08 15:02:01;;;;;;;;;6.00;5.67;;;;;26.87;33.03;102874.91;5068144;27;45714;-73
2023/02/08 15:04:28;;;;;;;;;5.00;4.00;;;;;26.82;33.61;102872.59;5062826;27;45829;-73
2023/02/08 15:07:18;;;;;;;;;5.00;3.67;;;;;26.82;33.34;102866.31;5099126;27;45602;-79
2023/02/08 15:09:44;;;;;;;;;5.33;5.33;;;;;26.80;33.59;102868.28;5063386;28;46727;-77
2023/02/08 15:12:18;;;;;;;;;3.33;3.33;;;;;26.79;33.42;102866.56;5073219;28;45393;-83
2023/02/08 15:14:43;;;;;;;;;6.33;6.33;;;;;26.76;33.45;102867.72;5070435;27;45472;-77
2023/02/08 15:17:19;;;;;;;;;6.00;6.00;;;;;26.68;33.43;102872.97;5055666;28;45772;-77
2023/02/08 15:19:46;;;;;;;;;8.00;6.67;;;;;26.53;32.88;102861.63;5065971;27;45516;-77
2023/02/08 15:22:17;;;;;;;;;8.00;8.00;;;;;26.40;33.10;102865.44;5071164;28;45375;-76
2023/02/08 15:24:58;;;;;;;;;7.00;6.33;;;;;26.26;32.60;102869.41;5070170;28;45353;-78
2023/02/08 15:28:06;;;;;;;;;7.67;6.00;;;;;26.18;32.74;102874.63;5083166;27;45584;-74
2023/02/08 15:30:36;;;;;;;;;8.00;6.00;;;;;26.09;32.74;102854.53;5008337;28;48018;-76
2023/02/08 15:33:07;;;;;;;;;6.00;6.00;;;;;26.11;32.66;102860.69;5003092;28;45500;-79
2023/02/08 15:35:34;;;;;;;;;6.00;6.00;;;;;26.17;32.80;102871.03;5007229;28;45692;-77
2023/02/08 15:38:04;;;;;;;;;6.00;6.00;;;;;25.96;33.25;102834.84;5008103;28;45468;-79
2023/02/08 15:40:32;;;;;;;;;5.33;5.33;;;;;26.15;33.32;102870.31;5016650;28;47100;-80
2023/02/08 15:43:11;;;;;;;;;6.67;6.00;;;;;26.04;33.32;102845.91;5006718;28;45448;-88
2023/02/08 15:45:36;;;;;;;;;4.67;4.67;;;;;25.96;32.83;102834.84;5002492;28;45527;-75
2023/02/08 15:48:05;;;;;;;;;7.00;7.00;;;;;26.17;32.93;102859.28;5006658;28;45460;-74
2023/02/08 15:50:32;;;;;;;;;5.00;5.00;;;;;26.12;33.43;102847.97;5008343;28;46434;-82
2023/02/08 15:53:00;;;;;;;;;6.67;4.33;;;;;26.17;33.31;102862.03;5005411;28;45693;-81
2023/02/08 15:55:47;;;;;;;;;6.33;4.00;;;;;26.20;33.01;102859.03;5015105;28;45888;-76
2023/02/08 15:58:19;;;;;;;;;7.33;4.67;;;;;26.21;33.16;102857.16;5017102;28;45656;-75
2023/02/08 16:00:45;;;;;;;;;6.67;5.67;;;;;26.20;33.28;102847.28;4999575;28;46488;-77
2023/02/08 16:03:22;;;;;;;;;9.67;5.00;;;;;26.18;33.26;102836.53;5004300;28;45745;-77
2023/02/08 16:05:55;;;;;;;;;5.33;5.33;;;;;26.20;33.20;102836.38;5002762;28;45502;-77
2023/02/08 16:08:24;;;;;;;;;7.50;6.00;;;;;26.21;32.70;102838.09;5067659;27;45561;-75
2023/02/08 16:10:58;;;;;;;;;4.00;4.00;;;;;26.21;33.09;102836.25;5064162;27;45444;-78
2023/02/08 16:13:30;;;;;;;;;5.33;4.00;;;;;26.21;33.25;102836.25;5074476;28;45497;-78
2023/02/08 16:16:25;;;;;;;;;6.00;6.00;;;;;26.25;32.92;102842.31;5075030;27;45459;-74
2023/02/08 16:18:59;;;;;;;;;8.00;8.00;;;;;26.21;32.72;102844.41;5072951;27;46044;-75
2023/02/08 16:21:30;;;;;;;;;4.33;4.33;;;;;26.15;33.20;102829.50;5057086;28;46185;-72
2023/02/08 16:23:59;;;;;;;;;10.00;5.33;;;;;26.18;33.13;102841.97;5069942;28;45505;-71
2023/02/08 16:26:28;;;;;;;;;8.00;7.00;;;;;26.17;32.87;102834.81;5069071;27;45581;-72
2023/02/08 16:29:00;;;;;;;;;6.00;5.00;;;;;26.20;33.29;102839.09;5067170;27;45709;-74
2023/02/08 16:31:29;;;;;;;;;4.33;4.33;;;;;26.18;33.07;102834.66;5069444;27;46328;-71
2023/02/08 16:34:11;;;;;;;;;7.67;6.67;;;;;26.16;32.83;102838.53;5075233;28;45804;-70
2023/02/08 16:36:40;;;;;;;;;5.00;5.00;;;;;26.16;32.73;102841.25;5070314;28;45432;-71
2023/02/08 16:39:15;;;;;;;;;5.67;5.33;;;;;26.16;33.11;102830.38;5064469;28;45695;-72
2023/02/08 16:41:55;;;;;;;;;7.67;5.67;;;;;26.16;32.99;102839.38;5056190;28;47422;-73
2023/02/08 16:44:29;;;;;;;;;4.33;4.33;;;;;26.18;33.21;102840.13;5071391;27;45470;-76
2023/02/08 16:46:55;;;;;;;;;7.33;4.67;;;;;26.18;33.19;102842.84;5073730;27;45458;-75
2023/02/08 16:49:21;;;;;;;;;4.67;4.67;;;;;26.21;32.90;102843.53;5075867;28;45296;-73
2023/02/08 16:51:47;;;;;;;;;8.67;5.00;;;;;26.23;32.86;102844.28;5060364;27;45402;-74
2023/02/08 16:54:19;;;;;;;;;6.00;5.00;;;;;26.24;33.45;102852.28;5074993;28;45514;-74
2023/02/08 16:56:46;;;;;;;;;6.00;6.00;;;;;26.26;32.88;102847.63;5066081;27;45569;-81
2023/02/08 16:59:12;;;;;;;;;1.33;1.00;;;;;26.27;33.55;102856.63;5066987;27;45665;-78
2023/02/08 17:01:38;;;;;;;;;9.67;8.00;;;;;26.22;33.08;102859.75;5063308;27;47095;-78
2023/02/08 17:04:04;;;;;;;;;8.00;6.00;;;;;26.17;32.86;102862.84;5072652;27;45969;-77
2023/02/08 17:06:32;;;;;;;;;6.67;6.67;;;;;26.15;33.21;102866.72;5077306;27;45453;-83
2023/02/08 17:08:59;;;;;;;;;12.33;7.67;;;;;26.15;33.42;102859.44;5065399;27;45538;-76
2023/02/08 17:11:25;;;;;;;;;6.33;6.33;;;;;26.16;33.22;102863.03;5067124;28;46573;-73
2023/02/08 17:13:53;;;;;;;;;6.67;6.67;;;;;26.17;33.16;102870.19;5069766;27;45498;-77
2023/02/08 17:16:22;;;;;;;;;7.33;6.33;;;;;26.14;33.01;102868.59;5073315;27;45356;-86
2023/02/08 17:18:48;;;;;;;;;6.33;6.33;;;;;26.17;32.81;102872.91;5075505;27;45340;-75
2023/02/08 17:21:13;;;;;;;;;7.00;7.00;;;;;26.13;32.92;102871.44;5076736;27;47550;-76
2023/02/08 17:23:39;;;;;;;;;4.67;4.67;;;;;26.13;32.89;102876.88;5064920;28;45989;-75
2023/02/08 17:26:30;;;;;;;;;6.00;5.33;;;;;26.10;32.36;102875.28;5070864;28;45538;-76
2023/02/08 17:29:00;;;;;;;;;6.67;6.67;;;;;26.10;32.69;102878.03;5062432;27;46553;-76
2023/02/08 17:31:28;;;;;;;;;5.33;5.33;;;;;26.08;32.92;102877.31;5065223;27;45864;-80
2023/02/08 17:33:55;;;;;;;;;8.00;7.00;;;;;26.10;32.86;102885.31;5070778;28;47258;-79
2023/02/08 17:36:20;;;;;;;;;7.33;4.67;;;;;26.08;33.06;102874.59;5067269;28;45486;-75
2023/02/08 17:38:46;;;;;;;;;6.00;6.00;;;;;26.10;32.88;102883.47;5083605;27;45699;-74
2023/02/08 17:41:14;;;;;;;;;9.33;6.00;;;;;26.12;32.68;102884.19;5058537;27;47139;-78
2023/02/08 17:43:39;;;;;;;;;7.00;6.00;;;;;26.14;32.77;102887.66;5072535;27;45448;-79
2023/02/08 17:46:10;;;;;;;;;8.00;8.00;;;;;26.12;32.39;102888.78;5069066;27;45566;-78
2023/02/08 17:48:35;;;;;;;;;10.33;8.33;;;;;26.02;32.30;102892.31;5077258;27;45672;-78
2023/02/08 17:51:01;;;;;;;;;6.33;5.33;;;;;25.89;32.46;102880.75;5074035;28;46005;-78
2023/02/08 17:53:26;;;;;;;;;6.33;6.33;;;;;25.85;32.50;102884.72;5061802;27;45402;-78
2023/02/08 17:55:51;;;;;;;;;6.00;5.00;;;;;25.78;32.58;102890.72;5071629;27;45584;-77
2023/02/08 17:58:17;;;;;;;;;5.67;5.67;;;;;25.75;32.58;102879.25;5075851;27;45591;-78
2023/02/08 18:00:43;;;;;;;;;12.67;11.00;;;;;25.69;32.62;102877.91;5063684;27;45490;-79
2023/02/08 18:03:09;;;;;;;;;6.67;6.67;;;;;25.60;32.83;102876.84;5064906;27;45550;-78
2023/02/08 18:05:35;;;;;;;;;7.67;7.67;;;;;25.59;32.42;102882.41;5082920;27;45434;-78
2023/02/08 18:08:01;;;;;;;;;7.00;6.00;;;;;25.57;32.25;102884.38;5062106;28;45517;-76
2023/02/08 18:10:27;;;;;;;;;12.33;8.67;;;;;25.53;32.41;102875.59;5068931;27;45599;-80
2023/02/08 18:12:53;;;;;;;;;8.00;7.67;;;;;25.46;32.54;102875.25;5069809;28;45492;-79
2023/02/08 18:15:21;;;;;;;;;8.67;8.00;;;;;25.39;32.42;102872.19;5069889;27;45387;-74
2023/02/08 18:17:47;;;;;;;;;10.00;7.33;;;;;25.32;32.32;102871.00;5080774;27;45761;-74
2023/02/08 18:20:14;;;;;;;;;7.00;7.00;;;;;25.43;32.56;102880.09;5073321;27;45653;-77
2023/02/08 18:22:40;;;;;;;;;11.00;10.67;;;;;25.51;32.33;102880.31;5075257;27;45455;-73
2023/02/08 18:25:07;;;;;;;;;9.00;8.33;;;;;25.59;32.37;102883.25;5071664;27;45481;-77
2023/02/08 18:27:33;;;;;;;;;9.00;6.67;;;;;25.67;32.96;102879.91;5074567;27;45442;-77
2023/02/08 18:29:58;;;;;;;;;7.00;6.67;;;;;25.70;32.52;102881.50;5072894;27;45526;-77
2023/02/08 18:32:26;;;;;;;;;5.00;5.00;;;;;25.73;32.43;102883.94;5071451;27;45485;-72
2023/02/08 18:34:52;;;;;;;;;9.00;7.33;;;;;25.72;32.37;102885.81;5075002;27;45409;-72
2023/02/08 18:37:17;;;;;;;;;8.67;8.00;;;;;25.74;32.23;102891.09;5075324;27;45455;-72
2023/02/08 18:39:43;;;;;;;;;12.00;9.00;;;;;25.72;32.80;102876.78;5062361;28;46614;-73
2023/02/08 18:42:08;;;;;;;;;6.33;6.33;;;;;25.73;32.65;102886.66;5070182;27;45405;-76
2023/02/08 18:44:37;;;;;;;;;9.67;8.67;;;;;25.75;32.59;102892.84;5073070;27;45443;-77
2023/02/08 18:47:03;;;;;;;;;6.67;6.67;;;;;25.73;32.98;102883.94;5071587;28;45544;-81
2023/02/08 18:49:28;;;;;;;;;9.67;7.00;;;;;25.74;32.84;102883.81;5064222;28;46110;-78
2023/02/08 18:51:54;;;;;;;;;11.67;10.33;;;;;25.74;32.78;102889.25;5072194;27;45446;-78
2023/02/08 18:54:19;;;;;;;;;8.67;8.67;;;;;25.75;32.64;102888.25;5069016;27;45447;-78
2023/02/08 18:56:44;;;;;;;;;9.00;9.00;;;;;25.79;32.42;102894.31;5069165;28;45537;-79
2023/02/08 18:59:11;;;;;;;;;9.00;7.67;;;;;25.79;32.77;102886.16;5070015;27;46489;-78
2023/02/08 19:01:37;;;;;;;;;9.00;9.00;;;;;25.79;32.78;102886.16;5069531;28;45524;-80
2023/02/08 19:04:04;;;;;;;;;11.00;9.00;;;;;25.78;32.30;102887.97;5074079;28;45769;-79
2023/02/08 19:06:31;;;;;;;;;11.33;9.00;;;;;25.75;32.15;102888.25;5072159;28;45299;-78